Time;durP1;ratioP1;P1;durP2;ratioP2;P2;SDS_P1;SDS_P2;PMS_P1;PMS_P2;Temp;Humidity;BMP_temperature;BMP_pressure;BME280_temperature;BME280_humidity;BME280_pressure;Samples;Min_cycle;Max_cycle;Signal;HPM_P1;HPM_P2
2023/05/06 00:00:25;;;;;;;;;;;;;;;10.61;100.00;101628.25;5052899;28;19920;-72
2023/05/06 00:02:51;;;;;;;;;;;;;;;10.69;100.00;101638.50;5048324;28;19921;-71
2023/05/06 00:05:17;;;;;;;;;;;;;;;10.73;100.00;101640.88;5050116;28;20433;-71
2023/05/06 00:07:44;;;;;;;;;;;;;;;10.82;100.00;101643.91;5052903;28;20164;-72
2023/05/06 00:10:09;;;;;;;;;;;;;;;10.85;100.00;101632.97;5050435;28;19920;-72
2023/05/06 00:12:34;;;;;;;;;;;;;;;10.90;100.00;101636.22;5051544;28;20233;-72
2023/05/06 00:15:00;;;;;;;;;;;;;;;10.97;100.00;101631.28;5048776;28;19982;-72
2023/05/06 00:17:25;;;;;;;;;;;;;;;10.98;100.00;101631.19;5056544;28;19938;-71
2023/05/06 00:19:51;;;;;;;;;;;;;;;11.00;100.00;101626.56;5052537;28;19917;-72
2023/05/06 00:22:16;;;;;;;;;;;;;;;11.00;100.00;101628.41;5047525;28;19927;-72
2023/05/06 00:24:41;;;;;;;;;;;;;;;10.99;100.00;101630.22;5055052;28;20371;-71
2023/05/06 00:27:06;;;;;;;;;;;;;;;10.97;100.00;101623.22;5048539;28;20754;-72
2023/05/06 00:29:32;;;;;;;;;;;;;;;10.94;100.00;101619.78;5051240;28;20325;-72
2023/05/06 00:31:57;;;;;;;;;;;;;;;10.93;100.00;101619.91;5053344;28;19928;-71
2023/05/06 00:34:22;;;;;;;;;;;;;;;10.88;100.00;101619.34;5048331;28;19921;-72
2023/05/06 00:36:47;;;;;;;;;;;;;;;10.88;100.00;101609.44;5054648;28;19920;-72
2023/05/06 00:39:12;;;;;;;;;;;;;;;10.80;100.00;101607.28;5047414;28;19966;-71
2023/05/06 00:41:38;;;;;;;;;;;;;;;10.79;100.00;101605.53;5050842;28;20034;-72
2023/05/06 00:44:03;;;;;;;;;;;;;;;10.75;100.00;101603.19;5052873;28;19966;-72
2023/05/06 00:46:28;;;;;;;;;;;;;;;10.69;100.00;101611.63;5047885;28;20027;-72
2023/05/06 00:48:54;;;;;;;;;;;;;;;10.58;100.00;101613.22;5050576;28;19925;-72
2023/05/06 00:51:19;;;;;;;;;;;;;;;10.48;100.00;101602.19;5053408;28;20427;-72
2023/05/06 00:53:47;;;;;;;;;;;;;;;10.43;100.00;101600.78;5053138;28;20309;-71
2023/05/06 00:56:12;;;;;;;;;;;;;;;10.42;100.00;101613.34;5050739;28;19956;-72
2023/05/06 00:58:38;;;;;;;;;;;;;;;10.42;100.00;101613.34;5050835;28;20019;-72
2023/05/06 01:01:03;;;;;;;;;;;;;;;10.43;100.00;101612.41;5050834;28;19970;-71
2023/05/06 01:03:28;;;;;;;;;;;;;;;10.48;100.00;101604.03;5038318;28;19920;-71
2023/05/06 01:06:08;;;;;;;;;;;;;;;10.49;100.00;101600.38;5048057;28;19924;-72
2023/05/06 01:08:35;;;;;;;;;;;;;;;10.48;100.00;101601.34;5049375;28;20426;-72
2023/05/06 01:11:20;;;;;;;;;;;;;;;10.34;100.00;101607.56;5045758;28;20000;-72
2023/05/06 01:14:07;;;;;;;;;;;;;;;10.21;100.00;101602.13;5045647;28;19947;-72
2023/05/06 01:16:32;;;;;;;;;;;;;;;10.12;100.00;101600.91;5046316;28;20502;-72
2023/05/06 01:18:57;;;;;;;;;;;;;;;10.11;100.00;101592.94;5052565;28;20015;-72
2023/05/06 01:21:25;;;;;;;;;;;;;;;10.08;100.00;101596.69;5048095;28;19921;-72
2023/05/06 01:23:56;;;;;;;;;;;;;;;10.05;100.00;101600.44;5064337;28;19921;-73
2023/05/06 01:26:21;;;;;;;;;;;;;;;10.02;100.00;101591.72;5052832;28;20341;-72
2023/05/06 01:28:47;;;;;;;;;;;;;;;10.02;100.00;101594.41;5047711;28;19920;-72
2023/05/06 01:31:12;;;;;;;;;;;;;;;10.04;100.00;101589.81;5051046;28;19956;-72
2023/05/06 01:33:41;;;;;;;;;;;;;;;9.98;100.00;101590.19;5048630;28;20301;-72
2023/05/06 01:36:12;;;;;;;;;;;;;;;9.88;100.00;101595.28;5050968;28;19916;-71
2023/05/06 01:38:46;;;;;;;;;;;;;;;9.78;100.00;101595.00;5049347;28;19924;-72
2023/05/06 01:41:14;;;;;;;;;;;;;;;9.57;100.00;101591.81;5042169;28;19925;-71
2023/05/06 01:43:39;;;;;;;;;;;;;;;9.45;100.00;101591.63;5048219;28;19916;-71
2023/05/06 01:46:04;;;;;;;;;;;;;;;9.36;100.00;101589.50;5050002;28;20350;-72
2023/05/06 01:48:30;;;;;;;;;;;;;;;9.39;100.00;101591.16;5049832;28;20011;-71
2023/05/06 01:50:56;;;;;;;;;;;;;;;9.37;100.00;101582.34;5052736;28;19920;-72
2023/05/06 01:53:21;;;;;;;;;;;;;;;9.39;100.00;101586.63;5049469;28;19928;-72
2023/05/06 01:55:47;;;;;;;;;;;;;;;9.42;100.00;101588.25;5050047;28;19944;-71
2023/05/06 01:58:12;;;;;;;;;;;;;;;9.48;100.00;101584.34;5051419;28;19943;-72
2023/05/06 02:00:38;;;;;;;;;;;;;;;9.49;100.00;101594.97;5048352;28;19920;-72
2023/05/06 02:03:03;;;;;;;;;;;;;;;9.38;100.00;101592.94;5052051;28;20377;-71
2023/05/06 02:05:28;;;;;;;;;;;;;;;9.32;100.00;101593.31;5046738;28;19962;-72
2023/05/06 02:07:54;;;;;;;;;;;;;;;9.25;100.00;101595.50;5046663;28;20351;-72
2023/05/06 02:10:19;;;;;;;;;;;;;;;9.29;100.00;101602.41;5044955;28;19963;-71
2023/05/06 02:12:44;;;;;;;;;;;;;;;9.35;100.00;101601.16;5047509;28;20015;-72
2023/05/06 02:15:10;;;;;;;;;;;;;;;9.41;100.00;101613.31;5046237;28;20371;-72
2023/05/06 02:17:36;;;;;;;;;;;;;;;9.31;100.00;101610.34;5051815;28;20389;-71
2023/05/06 02:20:01;;;;;;;;;;;;;;;9.20;100.00;101611.00;5029592;28;20360;-72
2023/05/06 02:22:26;;;;;;;;;;;;;;;9.09;100.00;101608.94;5049120;28;19942;-71
2023/05/06 02:24:51;;;;;;;;;;;;;;;9.05;100.00;101606.56;5050574;28;19963;-72
2023/05/06 02:27:17;;;;;;;;;;;;;;;8.96;100.00;101614.19;5047811;28;20008;-71
2023/05/06 02:29:42;;;;;;;;;;;;;;;8.95;100.00;101609.78;5050405;28;19921;-71
2023/05/06 02:32:07;;;;;;;;;;;;;;;9.00;100.00;101610.38;5050271;28;19921;-72
2023/05/06 02:34:32;;;;;;;;;;;;;;;9.02;100.00;101604.06;5044062;28;19924;-72
2023/05/06 02:36:57;;;;;;;;;;;;;;;9.02;100.00;101604.91;5050130;28;19931;-71
2023/05/06 02:39:23;;;;;;;;;;;;;;;8.94;100.00;101596.47;5045504;28;19925;-72
2023/05/06 02:41:48;;;;;;;;;;;;;;;8.91;100.00;101604.69;5045204;28;20343;-72
2023/05/06 02:44:13;;;;;;;;;;;;;;;8.84;100.00;101609.56;5043282;28;20862;-71
2023/05/06 02:46:38;;;;;;;;;;;;;;;8.75;100.00;101600.22;5047071;28;20406;-71
2023/05/06 02:49:04;;;;;;;;;;;;;;;8.57;100.00;101603.97;5043908;28;20499;-72
2023/05/06 02:51:29;;;;;;;;;;;;;;;8.55;100.00;101599.56;5046316;28;20098;-71
2023/05/06 02:53:55;;;;;;;;;;;;;;;8.57;100.00;101591.44;5047780;28;19932;-72
2023/05/06 02:56:20;;;;;;;;;;;;;;;8.62;100.00;101591.19;5045130;28;19917;-71
2023/05/06 02:58:45;;;;;;;;;;;;;;;8.56;100.00;101603.13;5040051;28;20385;-71
2023/05/06 03:01:10;;;;;;;;;;;;;;;8.46;100.00;101597.38;5043037;28;20206;-72
2023/05/06 03:03:36;;;;;;;;;;;;;;;8.32;100.00;101605.31;5050398;28;19954;-72
2023/05/06 03:06:01;;;;;;;;;;;;;;;8.15;100.00;101603.56;5047227;28;19927;-71
2023/05/06 03:08:26;;;;;;;;;;;;;;;8.14;100.00;101596.50;5049803;28;19951;-72
2023/05/06 03:10:51;;;;;;;;;;;;;;;8.02;100.00;101588.22;5047197;28;19960;-72
2023/05/06 03:13:16;;;;;;;;;;;;;;;7.99;100.00;101595.53;5055960;28;20011;-72
2023/05/06 03:15:42;;;;;;;;;;;;;;;7.89;100.00;101600.53;5054046;28;19920;-72
2023/05/06 03:18:07;;;;;;;;;;;;;;;7.76;100.00;101587.84;5056361;28;20458;-72
2023/05/06 03:20:32;;;;;;;;;;;;;;;7.71;100.00;101597.91;5049965;28;20368;-71
2023/05/06 03:22:57;;;;;;;;;;;;;;;7.72;100.00;101596.97;5055245;28;20349;-72
2023/05/06 03:25:23;;;;;;;;;;;;;;;7.71;100.00;101595.22;5052350;28;19920;-71
2023/05/06 03:27:48;;;;;;;;;;;;;;;7.75;100.00;101591.47;5051241;28;19963;-70
2023/05/06 03:30:13;;;;;;;;;;;;;;;7.76;100.00;101586.97;5048050;28;20195;-72
2023/05/06 03:32:38;;;;;;;;;;;;;;;7.73;100.00;101590.69;5051309;28;19920;-72
2023/05/06 03:35:05;;;;;;;;;;;;;;;7.70;100.00;101595.31;5044891;28;20539;-71
2023/05/06 03:37:30;;;;;;;;;;;;;;;7.72;100.00;101590.75;5052770;28;19990;-71
2023/05/06 03:39:56;;;;;;;;;;;;;;;7.76;100.00;101590.50;5051328;28;19921;-72
2023/05/06 03:42:21;;;;;;;;;;;;;;;7.83;100.00;101591.03;5048138;28;20180;-71
2023/05/06 03:44:46;;;;;;;;;;;;;;;7.93;100.00;101589.59;5048463;28;20394;-72
2023/05/06 03:47:11;;;;;;;;;;;;;;;7.86;100.00;101566.81;5048734;28;20397;-72
2023/05/06 03:49:36;;;;;;;;;;;;;;;7.99;100.00;101595.53;5051289;28;19931;-70
2023/05/06 03:52:02;;;;;;;;;;;;;;;7.91;100.00;101590.59;5054683;28;20430;-71
2023/05/06 03:54:27;;;;;;;;;;;;;;;7.88;100.00;101594.31;5052090;28;19986;-72
2023/05/06 03:56:52;;;;;;;;;;;;;;;7.85;100.00;101589.16;5036465;28;20027;-71
2023/05/06 03:59:17;;;;;;;;;;;;;;;7.83;100.00;101595.50;5050469;28;19969;-72
2023/05/06 04:01:42;;;;;;;;;;;;;;;7.77;100.00;101594.91;5054982;28;19920;-72
2023/05/06 04:04:08;;;;;;;;;;;;;;;7.78;100.00;101593.97;5033619;28;20352;-71
2023/05/06 04:06:33;;;;;;;;;;;;;;;7.81;100.00;101592.94;5053901;28;20428;-72
2023/05/06 04:08:58;;;;;;;;;;;;;;;7.80;100.00;101597.41;5051825;28;19932;-72
2023/05/06 04:11:23;;;;;;;;;;;;;;;7.80;100.00;101600.09;5053479;28;20333;-71
2023/05/06 04:13:49;;;;;;;;;;;;;;;7.83;100.00;101593.72;5047793;28;19921;-72
2023/05/06 04:16:14;;;;;;;;;;;;;;;7.83;100.00;101601.72;5055279;28;20387;-72
2023/05/06 04:18:39;;;;;;;;;;;;;;;7.84;100.00;101594.56;5054785;28;19924;-71
2023/05/06 04:21:05;;;;;;;;;;;;;;;7.85;100.00;101596.28;5052690;28;19968;-71
2023/05/06 04:23:30;;;;;;;;;;;;;;;7.80;100.00;101594.75;5054858;28;19920;-72
2023/05/06 04:25:56;;;;;;;;;;;;;;;7.79;100.00;101600.16;5037863;28;20456;-71
2023/05/06 04:28:22;;;;;;;;;;;;;;;7.76;100.00;101601.22;5053749;28;19924;-72
2023/05/06 04:30:47;;;;;;;;;;;;;;;7.73;100.00;101606.72;5055888;28;19967;-71
2023/05/06 04:33:12;;;;;;;;;;;;;;;7.70;100.00;101606.88;5057112;28;19942;-72
2023/05/06 04:35:38;;;;;;;;;;;;;;;7.70;100.00;101617.56;5056053;28;20316;-72
2023/05/06 04:38:03;;;;;;;;;;;;;;;7.63;100.00;101618.81;5045734;28;20861;-72
2023/05/06 04:40:28;;;;;;;;;;;;;;;7.67;100.00;101623.06;5057081;28;19920;-72
2023/05/06 04:42:53;;;;;;;;;;;;;;;7.61;100.00;101621.59;5055606;28;20035;-72
2023/05/06 04:45:19;;;;;;;;;;;;;;;7.58;100.00;101627.09;5052331;28;19924;-72
2023/05/06 04:47:44;;;;;;;;;;;;;;;7.63;100.00;101629.53;5056268;28;19983;-72
2023/05/06 04:50:09;;;;;;;;;;;;;;;7.63;100.00;101627.72;5056256;28;20402;-72
2023/05/06 04:52:35;;;;;;;;;;;;;;;7.72;100.00;101630.84;5047931;28;20185;-71
2023/05/06 04:55:00;;;;;;;;;;;;;;;7.77;100.00;101631.47;5055081;28;20011;-72
2023/05/06 04:57:26;;;;;;;;;;;;;;;7.83;100.00;101639.16;5053548;28;20433;-72
2023/05/06 04:59:51;;;;;;;;;;;;;;;7.90;100.00;101632.53;5050324;28;19921;-71
2023/05/06 05:02:16;;;;;;;;;;;;;;;7.91;100.00;101634.28;5054610;28;20005;-72
2023/05/06 05:04:41;;;;;;;;;;;;;;;7.84;100.00;101637.34;5049258;28;20061;-72
2023/05/06 05:07:06;;;;;;;;;;;;;;;7.95;100.00;101638.47;5053342;28;20359;-71
2023/05/06 05:09:32;;;;;;;;;;;;;;;8.00;100.00;101638.25;5043084;28;19958;-72
2023/05/06 05:11:57;;;;;;;;;;;;;;;8.10;100.00;101642.13;5048335;28;20283;-72
2023/05/06 05:14:23;;;;;;;;;;;;;;;8.26;100.00;101642.16;5055807;28;20141;-72
2023/05/06 05:16:48;;;;;;;;;;;;;;;8.44;100.00;101641.22;5052020;28;19967;-72
2023/05/06 05:19:13;;;;;;;;;;;;;;;8.60;100.00;101649.28;5055086;28;20391;-72
2023/05/06 05:21:38;;;;;;;;;;;;;;;8.79;100.00;101646.44;5055215;28;19961;-71
2023/05/06 05:24:04;;;;;;;;;;;;;;;8.99;100.00;101648.81;5050850;28;20319;-72
2023/05/06 05:26:29;;;;;;;;;;;;;;;9.21;100.00;101654.75;5052341;28;20382;-72
2023/05/06 05:28:54;;;;;;;;;;;;;;;9.42;100.00;101661.50;5046010;28;19925;-71
2023/05/06 05:31:19;;;;;;;;;;;;;;;9.59;100.00;101660.47;5052238;28;19990;-72
2023/05/06 05:33:44;;;;;;;;;;;;;;;9.82;100.00;101657.34;5051899;28;19974;-72
2023/05/06 05:36:11;;;;;;;;;;;;;;;10.02;100.00;101662.34;5055680;28;19924;-71
2023/05/06 05:38:36;;;;;;;;;;;;;;;10.17;100.00;101648.91;5043372;28;19925;-72
2023/05/06 05:41:01;;;;;;;;;;;;;;;10.48;100.00;101665.78;5051842;28;19924;-72
2023/05/06 05:43:27;;;;;;;;;;;;;;;10.56;100.00;101666.16;5051972;28;19924;-71
2023/05/06 05:45:52;;;;;;;;;;;;;;;10.63;100.00;101672.00;5055175;28;20562;-72
2023/05/06 05:48:17;;;;;;;;;;;;;;;10.77;100.00;101671.09;5051474;28;20278;-72
2023/05/06 05:50:42;;;;;;;;;;;;;;;10.78;100.00;101668.28;5055439;28;20437;-71
2023/05/06 05:53:07;;;;;;;;;;;;;;;10.77;100.00;101669.25;5049827;28;20375;-72
2023/05/06 05:55:33;;;;;;;;;;;;;;;10.92;100.00;101664.69;5054561;28;19959;-72
2023/05/06 05:57:58;;;;;;;;;;;;;;;11.01;100.00;101663.22;5054200;28;19978;-71
2023/05/06 06:00:23;;;;;;;;;;;;;;;11.07;100.00;101664.66;5053597;28;20019;-72
2023/05/06 06:02:48;;;;;;;;;;;;;;;11.21;100.00;101661.88;5049178;28;20379;-72
2023/05/06 06:05:14;;;;;;;;;;;;;;;11.29;100.00;101663.19;5052379;28;19964;-71
2023/05/06 06:07:39;;;;;;;;;;;;;;;11.23;100.00;101673.41;5057810;28;20015;-72
2023/05/06 06:10:05;;;;;;;;;;;;;;;11.19;100.00;101676.41;5055315;28;20031;-72
2023/05/06 06:12:30;;;;;;;;;;;;;;;11.24;100.00;101675.13;5038578;28;19936;-72
2023/05/06 06:14:55;;;;;;;;;;;;;;;11.25;100.00;101673.31;5057866;28;19920;-72
2023/05/06 06:17:20;;;;;;;;;;;;;;;11.33;100.00;101670.09;5048247;28;19925;-72
2023/05/06 06:19:46;;;;;;;;;;;;;;;11.41;100.00;101665.03;5048808;28;19920;-71
2023/05/06 06:22:11;;;;;;;;;;;;;;;11.58;100.00;101661.19;5055405;28;19931;-72
2023/05/06 06:24:36;;;;;;;;;;;;;;;11.71;100.00;101666.59;5064366;28;19924;-73
2023/05/06 06:27:01;;;;;;;;;;;;;;;11.85;100.00;101671.00;5060833;28;19928;-72
2023/05/06 06:29:26;;;;;;;;;;;;;;;12.06;100.00;101678.56;5059417;28;19974;-72
2023/05/06 06:31:54;;;;;;;;;;;;;;;12.02;100.00;101677.09;5066131;28;20011;-73
2023/05/06 06:34:19;;;;;;;;;;;;;;;12.16;100.00;101668.88;5062385;28;20267;-72
2023/05/06 06:36:45;;;;;;;;;;;;;;;12.21;100.00;101665.84;5057988;28;19931;-72
2023/05/06 06:39:12;;;;;;;;;;;;;;;12.24;100.00;101669.19;5049624;28;21271;-74
2023/05/06 06:41:37;;;;;;;;;;;;;;;12.27;100.00;101668.09;5034620;28;19920;-72
2023/05/06 06:44:02;;;;;;;;;;;;;;;12.43;100.00;101668.72;5044034;28;20438;-72
2023/05/06 06:46:28;;;;;;;;;;;;;;;12.49;100.00;101659.34;5047393;28;19921;-72
2023/05/06 06:48:53;;;;;;;;;;;;;;;12.63;100.00;101670.91;5048511;28;19927;-72
2023/05/06 06:51:18;;;;;;;;;;;;;;;12.65;100.00;101669.84;5047683;28;19920;-72
2023/05/06 06:53:43;;;;;;;;;;;;;;;12.80;100.00;101658.91;5045811;28;20043;-73
2023/05/06 06:56:10;;;;;;;;;;;;;;;12.75;100.00;101664.63;5041633;28;19921;-73
2023/05/06 06:58:35;;;;;;;;;;;;;;;13.03;100.00;101660.72;5044121;28;20051;-73
2023/05/06 07:01:00;;;;;;;;;;;;;;;13.16;100.00;101657.13;5051297;28;19950;-72
2023/05/06 07:03:26;;;;;;;;;;;;;;;13.37;100.00;101665.41;5052698;28;19927;-73
2023/05/06 07:05:51;;;;;;;;;;;;;;;13.58;100.00;101664.75;5053216;28;19920;-73
2023/05/06 07:08:16;;;;;;;;;;;;;;;13.72;100.00;101669.09;5052514;28;19921;-73
2023/05/06 07:10:42;;;;;;;;;;;;;;;13.95;100.00;101667.25;5064543;28;19927;-73
2023/05/06 07:13:07;;;;;;;;;;;;;;;14.08;100.00;101664.44;5054560;28;19927;-73
2023/05/06 07:15:32;;;;;;;;;;;;;;;14.20;100.00;101671.56;5052664;28;19921;-72
2023/05/06 07:17:57;;;;;;;;;;;;;;;14.28;100.00;101668.25;5052600;28;20375;-72
2023/05/06 07:20:23;;;;;;;;;;;;;;;14.37;100.00;101670.22;5048669;28;19951;-73
2023/05/06 07:22:48;;;;;;;;;;;;;;;14.70;100.00;101665.75;5063685;28;19984;-72
2023/05/06 07:25:13;;;;;;;;;;;;;;;14.73;100.00;101669.19;5051141;28;20332;-72
2023/05/06 07:27:38;;;;;;;;;;;;;;;14.78;100.00;101667.84;5047482;28;19924;-73
2023/05/06 07:30:04;;;;;;;;;;;;;;;14.83;100.00;101664.75;5035932;28;19920;-72
2023/05/06 07:32:29;;;;;;;;;;;;;;;14.97;100.00;101667.16;5056723;28;20029;-73
2023/05/06 07:34:54;;;;;;;;;;;;;;;14.99;100.00;101667.88;5056689;28;20335;-72
2023/05/06 07:37:20;;;;;;;;;;;;;;;15.08;100.00;101676.22;5054895;28;19986;-73
2023/05/06 07:39:45;;;;;;;;;;;;;;;15.29;100.00;101679.81;5056267;28;20027;-73
2023/05/06 07:42:11;;;;;;;;;;;;;;;15.48;100.00;101675.56;5053869;28;19924;-73
2023/05/06 07:44:37;;;;;;;;;;;;;;;15.59;100.00;101667.38;5057181;28;19959;-73
2023/05/06 07:47:02;;;;;;;;;;;;;;;15.75;100.00;101672.31;5052810;28;20204;-73
2023/05/06 07:49:29;;;;;;;;;;;;;;;16.08;100.00;101679.50;5051513;28;19927;-73
2023/05/06 07:51:56;;;;;;;;;;;;;;;16.17;100.00;101673.25;5053181;28;19966;-73
2023/05/06 07:54:21;;;;;;;;;;;;;;;16.28;100.00;101673.16;5057673;28;20264;-73
2023/05/06 07:56:46;;;;;;;;;;;;;;;16.46;100.00;101672.50;5055139;28;20437;-73
2023/05/06 07:59:11;;;;;;;;;;;;;;;16.68;100.00;101670.59;5055688;28;19924;-73
2023/05/06 08:01:37;;;;;;;;;;;;;;;16.56;100.00;101670.69;5054481;28;19920;-73
2023/05/06 08:04:02;;;;;;;;;;;;;;;16.49;100.00;101673.09;5056556;28;20367;-74
2023/05/06 08:06:28;;;;;;;;;;;;;;;16.43;100.00;101667.34;5055607;28;20371;-73
2023/05/06 08:08:53;;;;;;;;;;;;;;;16.75;100.00;101671.72;5052860;28;19916;-74
2023/05/06 08:11:18;;;;;;;;;;;;;;;16.64;100.00;101672.69;5053323;28;19924;-74
2023/05/06 08:13:43;;;;;;;;;;;;;;;16.73;100.00;101671.88;5051955;28;19924;-74
2023/05/06 08:16:09;;;;;;;;;;;;;;;16.72;100.00;101669.28;5056423;28;19964;-74
2023/05/06 08:18:34;;;;;;;;;;;;;;;16.83;100.00;101674.59;5053371;28;19956;-73
2023/05/06 08:20:59;;;;;;;;;;;;;;;17.03;100.00;101680.06;5049604;28;19924;-74
2023/05/06 08:23:24;;;;;;;;;;;;;;;17.16;100.00;101674.38;5050276;28;19948;-73
2023/05/06 08:25:50;;;;;;;;;;;;;;;17.34;100.00;101664.53;5050961;28;20002;-74
2023/05/06 08:28:15;;;;;;;;;;;;;;;17.08;100.00;101670.50;5050439;28;20009;-75
2023/05/06 08:30:40;;;;;;;;;;;;;;;17.27;100.00;101666.09;5051866;28;19921;-74
2023/05/06 08:33:05;;;;;;;;;;;;;;;17.46;100.00;101673.38;5056926;28;19920;-74
2023/05/06 08:35:30;;;;;;;;;;;;;;;17.76;100.00;101660.56;5053975;28;19928;-74
2023/05/06 08:37:56;;;;;;;;;;;;;;;18.08;100.00;101663.94;5054426;28;19986;-73
2023/05/06 08:40:22;;;;;;;;;;;;;;;17.66;100.00;101662.47;5052935;28;19920;-75
2023/05/06 08:42:47;;;;;;;;;;;;;;;17.76;100.00;101663.28;5051496;28;20472;-75
2023/05/06 08:45:16;;;;;;;;;;;;;;;17.55;100.00;101660.78;5056327;28;20457;-75
2023/05/06 08:47:41;;;;;;;;;;;;;;;17.47;100.00;101664.22;5054655;28;20105;-72
2023/05/06 08:50:07;;;;;;;;;;;;;;;17.67;100.00;101666.91;5053689;28;20645;-76
2023/05/06 08:52:32;;;;;;;;;;;;;;;17.34;100.00;101666.38;5052136;28;20019;-76
2023/05/06 08:55:00;;;;;;;;;;;;;;;17.56;100.00;101669.75;5050255;28;20507;-78
2023/05/06 08:57:25;;;;;;;;;;;;;;;17.54;100.00;101659.91;5051729;28;19955;-76
2023/05/06 08:59:50;;;;;;;;;;;;;;;17.76;100.00;101652.41;5056352;28;20399;-74
2023/05/06 09:02:16;;;;;;;;;;;;;;;17.83;100.00;101664.41;5060148;28;19920;-76
2023/05/06 09:04:41;;;;;;;;;;;;;;;17.64;100.00;101659.03;5055771;28;19921;-76
2023/05/06 09:07:06;;;;;;;;;;;;;;;17.95;100.00;101647.94;5058749;28;20575;-76
2023/05/06 09:09:32;;;;;;;;;;;;;;;17.73;100.00;101650.03;5052060;28;19920;-76
2023/05/06 09:11:57;;;;;;;;;;;;;;;17.71;100.00;101643.00;5054085;28;19920;-74
2023/05/06 09:14:23;;;;;;;;;;;;;;;17.73;100.00;101644.59;5047278;28;20346;-73
2023/05/06 09:16:49;;;;;;;;;;;;;;;18.05;100.00;101647.94;5049772;28;19921;-76
2023/05/06 09:19:15;;;;;;;;;;;;;;;18.03;100.00;101644.50;5052830;28;19950;-75
2023/05/06 09:21:41;;;;;;;;;;;;;;;18.14;100.00;101634.31;5046495;28;20498;-76
2023/05/06 09:24:07;;;;;;;;;;;;;;;18.55;100.00;101647.53;5052271;28;20363;-77
2023/05/06 09:26:33;;;;;;;;;;;;;;;18.56;100.00;101648.38;5054142;28;19920;-77
2023/05/06 09:28:58;;;;;;;;;;;;;;;18.49;100.00;101633.72;5048165;28;20363;-76
2023/05/06 09:31:24;;;;;;;;;;;;;;;18.64;100.00;101645.75;5055361;28;19921;-76
2023/05/06 09:33:50;;;;;;;;;;;;;;;18.51;100.00;101640.69;5055411;28;19924;-76
2023/05/06 09:36:15;;;;;;;;;;;;;;;18.78;96.74;101630.78;5054345;28;19929;-76
2023/05/06 09:38:40;;;;;;;;;;;;;;;18.83;92.18;101641.19;5053873;28;19946;-75
2023/05/06 09:41:06;;;;;;;;;;;;;;;19.07;94.76;101639.78;5048360;28;19931;-76
2023/05/06 09:43:32;;;;;;;;;;;;;;;19.12;99.61;101624.69;5048859;28;19948;-76
2023/05/06 09:45:58;;;;;;;;;;;;;;;19.27;96.89;101632.28;5052008;28;19917;-76
2023/05/06 09:48:23;;;;;;;;;;;;;;;19.48;87.17;101632.75;5052772;28;19928;-75
2023/05/06 09:50:49;;;;;;;;;;;;;;;19.69;94.30;101628.84;5048132;28;19967;-75
2023/05/06 09:53:14;;;;;;;;;;;;;;;19.75;95.52;101630.06;5045164;28;20007;-78
2023/05/06 09:55:39;;;;;;;;;;;;;;;19.90;90.96;101627.63;5045024;28;19946;-77
2023/05/06 09:58:05;;;;;;;;;;;;;;;19.72;100.00;101627.66;5042584;28;19929;-76
2023/05/06 10:00:30;;;;;;;;;;;;;;;20.08;86.18;101625.66;5026256;28;19968;-74
2023/05/06 10:02:55;;;;;;;;;;;;;;;20.68;99.96;101628.41;5049759;28;20020;-73
2023/05/06 10:05:20;;;;;;;;;;;;;;;20.32;89.29;101632.22;5035748;28;19942;-76
2023/05/06 10:07:46;;;;;;;;;;;;;;;20.26;80.05;101637.50;5050958;28;19966;-75
2023/05/06 10:10:12;;;;;;;;;;;;;;;20.94;89.69;101630.19;5050287;28;19998;-76
2023/05/06 10:12:37;;;;;;;;;;;;;;;20.60;84.87;101622.94;5046804;28;19921;-76
2023/05/06 10:15:03;;;;;;;;;;;;;;;20.79;78.67;101624.56;5051071;28;20070;-74
2023/05/06 10:17:28;;;;;;;;;;;;;;;20.86;83.39;101620.13;5045713;28;20328;-74
2023/05/06 10:20:00;;;;;;;;;;;;;;;21.22;68.34;101608.88;5046771;28;20316;-74
2023/05/06 10:22:44;;;;;;;;;;;;;;;20.53;77.94;101612.69;5046964;28;19920;-75
2023/05/06 10:25:11;;;;;;;;;;;;;;;20.44;75.96;101613.69;5049843;28;19999;-76
2023/05/06 10:27:39;;;;;;;;;;;;;;;21.12;75.30;101602.72;5046215;28;20389;-76
2023/05/06 10:30:05;;;;;;;;;;;;;;;21.62;63.82;101606.28;5045838;28;20326;-77
2023/05/06 10:32:30;;;;;;;;;;;;;;;21.72;68.79;101601.47;5035712;28;20524;-77
2023/05/06 10:34:56;;;;;;;;;;;;;;;21.72;70.97;101600.63;5044760;28;19924;-77
2023/05/06 10:37:25;;;;;;;;;;;;;;;21.70;66.03;101592.63;5047664;28;19921;-71
2023/05/06 10:39:53;;;;;;;;;;;;;;;21.47;69.45;101597.06;5043696;28;19921;-78
2023/05/06 10:42:18;;;;;;;;;;;;;;;21.52;65.87;101591.94;5045131;28;19917;-76
2023/05/06 10:45:00;;;;;;;;;;;;;;;21.39;60.63;101595.19;5049934;28;19962;-75
2023/05/06 10:47:25;;;;;;;;;;;;;;;22.01;63.41;101593.69;5050928;28;19924;-76
2023/05/06 10:50:11;;;;;;;;;;;;;;;22.09;63.97;101587.34;5046183;28;20382;-78
2023/05/06 10:52:42;;;;;;;;;;;;;;;22.52;56.47;101582.34;5043646;28;19925;-75
2023/05/06 10:55:23;;;;;;;;;;;;;;;22.54;67.65;101591.22;5048300;28;19916;-75
2023/05/06 10:57:48;;;;;;;;;;;;;;;22.70;62.90;101582.06;5043586;28;20340;-76
2023/05/06 11:00:14;;;;;;;;;;;;;;;23.16;66.95;101577.59;5043662;28;20015;-77
2023/05/06 11:02:39;;;;;;;;;;;;;;;22.74;63.07;101582.56;5033617;28;19917;-74
2023/05/06 11:05:05;;;;;;;;;;;;;;;22.76;61.17;101584.06;5046427;28;19924;-76
2023/05/06 11:07:30;;;;;;;;;;;;;;;22.38;60.89;101575.72;5045575;28;19920;-76
2023/05/06 11:09:56;;;;;;;;;;;;;;;22.02;64.16;101577.09;5057068;28;19966;-77
2023/05/06 11:12:21;;;;;;;;;;;;;;;22.91;58.39;101570.44;5055744;28;20405;-76
2023/05/06 11:14:46;;;;;;;;;;;;;;;23.60;57.65;101570.47;5054341;28;20880;-76
2023/05/06 11:17:28;;;;;;;;;;;;;;;23.11;57.01;101574.56;5046170;28;19967;-77
2023/05/06 11:20:13;;;;;;;;;;;;;;;22.93;58.88;101570.22;5056119;28;19921;-74
2023/05/06 11:22:39;;;;;;;;;;;;;;;22.25;62.37;101570.84;5059530;28;19920;-75
2023/05/06 11:25:05;;;;;;;;;;;;;;;22.60;59.65;101571.34;5068205;28;19939;-75
2023/05/06 11:27:30;;;;;;;;;;;;;;;21.88;57.74;101562.31;5058557;28;20371;-77
2023/05/06 11:29:55;;;;;;;;;;;;;;;21.97;58.08;101567.75;5064574;28;19969;-76
2023/05/06 11:32:21;;;;;;;;;;;;;;;22.52;62.45;101560.44;5067247;28;19961;-75
2023/05/06 11:34:46;;;;;;;;;;;;;;;22.15;56.84;101562.03;5065819;28;19970;-76
2023/05/06 11:37:12;;;;;;;;;;;;;;;21.64;62.88;101559.66;5058555;28;20307;-76
2023/05/06 11:39:37;;;;;;;;;;;;;;;21.08;58.07;101558.53;5062012;28;19932;-75
2023/05/06 11:42:04;;;;;;;;;;;;;;;20.94;56.19;101564.69;5054795;28;19960;-75
2023/05/06 11:44:34;;;;;;;;;;;;;;;20.97;61.60;101564.34;5057496;28;20371;-76
2023/05/06 11:47:00;;;;;;;;;;;;;;;21.28;60.53;101555.44;5055167;28;20440;-75
2023/05/06 11:49:26;;;;;;;;;;;;;;;22.22;62.98;101562.16;5056261;28;20467;-76
2023/05/06 11:51:51;;;;;;;;;;;;;;;22.63;62.02;101567.41;5055606;28;20401;-75
2023/05/06 11:54:19;;;;;;;;;;;;;;;22.41;62.83;101569.91;5038685;28;19920;-78
2023/05/06 11:56:44;;;;;;;;;;;;;;;22.58;54.80;101569.84;5055849;28;20340;-76
2023/05/06 11:59:10;;;;;;;;;;;;;;;22.16;57.46;101564.56;5051086;28;20019;-75
2023/05/06 12:01:35;;;;;;;;;;;;;;;21.61;58.68;101565.44;5059461;28;19920;-76
2023/05/06 12:04:00;;;;;;;;;;;;;;;21.84;59.72;101562.84;5055525;28;19971;-76
2023/05/06 12:06:35;;;;;;;;;;;;;;;21.64;58.08;101559.66;5057553;28;19925;-75
2023/05/06 12:09:03;;;;;;;;;;;;;;;21.68;56.30;101564.63;5056310;28;19961;-75
2023/05/06 12:11:29;;;;;;;;;;;;;;;21.83;54.69;101561.13;5054810;28;20390;-75
2023/05/06 12:13:55;;;;;;;;;;;;;;;21.80;56.01;101556.03;5056302;28;19926;-74
2023/05/06 12:16:21;;;;;;;;;;;;;;;21.45;58.84;101556.25;5050813;28;20005;-75
2023/05/06 12:18:47;;;;;;;;;;;;;;;21.49;59.84;101549.44;5055637;28;20290;-77
2023/05/06 12:21:12;;;;;;;;;;;;;;;21.61;57.94;101547.22;5051438;28;20379;-75
2023/05/06 12:23:48;;;;;;;;;;;;;;;21.43;68.67;101545.53;5055983;28;20288;-75
2023/05/06 12:26:14;;;;;;;;;;;;;;;21.58;59.80;101559.28;5052811;28;19924;-77